Time;durP1;ratioP1;P1;durP2;ratioP2;P2;SDS_P1;SDS_P2;PMS_P1;PMS_P2;Temp;Humidity;BMP_temperature;BMP_pressure;BME280_temperature;BME280_humidity;BME280_pressure;Samples;Min_cycle;Max_cycle;Signal;HPM_P1;HPM_P2
2022/05/28 00:00:34;;;;;;;7.53;4.03;;;;;;;21.04;68.93;97957.59;5041922;28;20657;-60
2022/05/28 00:03:00;;;;;;;6.55;4.10;;;;;;;21.03;69.67;97958.59;5042130;28;20275;-60
2022/05/28 00:05:25;;;;;;;10.38;4.75;;;;;;;21.03;69.96;97955.97;5042486;28;21272;-60
2022/05/28 00:07:50;;;;;;;7.60;4.55;;;;;;;21.01;70.07;97955.34;5034247;28;20185;-60
2022/05/28 00:10:18;;;;;;;10.63;4.95;;;;;;;20.84;70.65;97960.91;5040636;28;20189;-60
2022/05/28 00:12:43;;;;;;;10.73;4.68;;;;;;;20.88;69.91;97964.81;5034270;28;20194;-61
2022/05/28 00:15:10;;;;;;;8.35;3.42;;;;;;;20.83;69.33;97959.25;5039611;28;20189;-60
2022/05/28 00:17:36;;;;;;;9.15;4.30;;;;;;;20.79;68.92;97965.88;5039651;28;20907;-60
2022/05/28 00:20:02;;;;;;;9.63;4.10;;;;;;;20.81;68.54;97954.19;5043757;28;20189;-60
2022/05/28 00:22:28;;;;;;;10.45;4.20;;;;;;;20.92;68.46;97952.97;5044347;28;20298;-59
2022/05/28 00:24:56;;;;;;;9.85;4.00;;;;;;;20.94;67.90;97964.94;5042759;28;20679;-59
2022/05/28 00:27:21;;;;;;;7.15;3.92;;;;;;;20.99;67.57;97961.78;5046978;28;20189;-60
2022/05/28 00:29:46;;;;;;;8.70;3.80;;;;;;;21.05;67.34;97958.41;5035340;28;20188;-59
2022/05/28 00:32:12;;;;;;;7.90;3.70;;;;;;;21.09;66.82;97959.69;5044774;28;20186;-60
2022/05/28 00:34:40;;;;;;;6.90;4.00;;;;;;;21.02;67.03;97945.59;5033298;28;20188;-59
2022/05/28 00:37:06;;;;;;;7.22;4.10;;;;;;;21.02;67.39;97940.34;5018730;28;20181;-60
2022/05/28 00:39:32;;;;;;;8.52;3.70;;;;;;;21.03;67.13;97944.63;5020945;28;20945;-60
2022/05/28 00:41:57;;;;;;;9.25;4.13;;;;;;;21.01;67.01;97936.09;5039203;28;20185;-59
2022/05/28 00:44:23;;;;;;;12.82;3.67;;;;;;;21.02;67.11;97935.09;5041434;28;20210;-59
2022/05/28 00:46:50;;;;;;;8.02;4.20;;;;;;;21.03;66.71;97937.53;5036632;28;20698;-60
2022/05/28 00:49:23;;;;;;;8.38;4.15;;;;;;;21.00;66.29;97932.66;5040209;28;20674;-59
2022/05/28 00:51:51;;;;;;;11.43;4.25;;;;;;;21.06;66.17;97944.25;5040774;28;20194;-59
2022/05/28 00:54:17;;;;;;;8.98;3.97;;;;;;;21.09;65.88;97941.28;5038795;28;20185;-59
2022/05/28 00:56:43;;;;;;;6.80;4.10;;;;;;;21.05;66.02;97937.38;5020430;28;20930;-59
2022/05/28 00:59:09;;;;;;;8.80;3.97;;;;;;;21.05;65.94;97945.25;5018996;28;20177;-60
2022/05/28 01:01:37;;;;;;;6.85;3.50;;;;;;;21.05;66.23;97940.00;5023009;28;20271;-60
2022/05/28 01:04:47;;;;;;;10.15;4.57;;;;;;;21.02;67.03;97945.59;5036030;28;20197;-61
2022/05/28 01:07:29;;;;;;;6.55;3.95;;;;;;;21.03;66.46;97936.75;5042325;28;20192;-59
2022/05/28 01:10:09;;;;;;;8.25;3.50;;;;;;;21.06;66.24;97946.88;5034722;28;20204;-59
2022/05/28 01:12:47;;;;;;;10.75;4.18;;;;;;;21.03;66.39;97944.63;5036757;28;20184;-59
2022/05/28 01:15:19;;;;;;;13.68;4.78;;;;;;;21.09;66.75;97947.34;5039357;28;20169;-59
2022/05/28 01:17:56;;;;;;;13.93;3.90;;;;;;;21.08;66.56;97948.34;5037359;28;20184;-59
2022/05/28 01:20:36;;;;;;;7.93;3.97;;;;;;;20.95;67.62;97942.06;5038466;28;20259;-59
2022/05/28 01:23:17;;;;;;;9.75;4.03;;;;;;;20.80;67.84;97947.28;5043257;28;20185;-59
2022/05/28 01:26:13;;;;;;;10.93;3.47;;;;;;;20.85;67.15;97933.59;5036271;28;20200;-59
2022/05/28 01:28:52;;;;;;;11.73;3.65;;;;;;;20.90;67.05;97936.53;5038192;28;20258;-59
2022/05/28 01:31:19;;;;;;;5.45;3.50;;;;;;;20.87;67.16;97932.41;5041005;28;20200;-59
2022/05/28 01:33:46;;;;;;;9.20;4.15;;;;;;;20.73;67.81;97919.25;5035343;28;20273;-60
2022/05/28 01:36:14;;;;;;;7.72;3.95;;;;;;;20.73;68.09;97935.03;5043086;28;20189;-59
2022/05/28 01:38:42;;;;;;;8.18;3.72;;;;;;;20.65;68.55;97929.88;5039431;28;20514;-59
2022/05/28 01:41:09;;;;;;;9.52;4.00;;;;;;;20.69;68.63;97936.41;5038159;28;20274;-60
2022/05/28 01:43:37;;;;;;;9.27;3.88;;;;;;;20.66;68.74;97931.50;5041141;28;20188;-59
2022/05/28 01:46:05;;;;;;;6.82;4.07;;;;;;;20.57;69.85;97936.00;5042593;28;20268;-59
2022/05/28 01:48:31;;;;;;;10.05;4.32;;;;;;;20.43;69.92;97922.84;5039338;28;20919;-59
2022/05/28 01:50:58;;;;;;;8.38;4.50;;;;;;;20.58;69.40;97936.84;5034896;28;20691;-59
2022/05/28 01:56:10;;;;;;;9.23;4.45;;;;;;;20.46;70.16;97923.31;5030653;28;20259;-60
2022/05/28 01:58:36;;;;;;;10.50;4.40;;;;;;;20.24;71.65;97929.44;5035803;28;20240;-59
2022/05/28 02:01:04;;;;;;;9.55;4.70;;;;;;;20.23;72.07;97916.47;5036548;28;20188;-59
2022/05/28 02:03:32;;;;;;;11.93;4.22;;;;;;;20.21;72.15;97927.13;5038706;28;20266;-60
2022/05/28 02:05:58;;;;;;;6.55;3.80;;;;;;;20.24;72.46;97920.72;5041230;28;20740;-60
2022/05/28 02:08:24;;;;;;;7.50;4.00;;;;;;;20.15;73.69;97919.13;5029823;28;20194;-60
2022/05/28 02:11:01;;;;;;;8.20;4.50;;;;;;;19.95;73.86;97917.97;5036509;28;20192;-59
2022/05/28 02:13:40;;;;;;;11.35;4.90;;;;;;;20.02;73.50;97919.72;5034895;28;21169;-60
2022/05/28 02:16:12;;;;;;;6.65;4.22;;;;;;;20.02;73.18;97905.75;5027627;28;20209;-60
2022/05/28 02:19:05;;;;;;;6.13;3.72;;;;;;;19.95;73.23;97917.97;5039938;28;20185;-59
2022/05/28 02:21:40;;;;;;;15.13;4.30;;;;;;;20.00;73.14;97907.75;5017441;28;20217;-59
2022/05/28 02:24:17;;;;;;;10.40;4.30;;;;;;;19.89;74.18;97905.53;5018067;28;20189;-60
2022/05/28 02:26:47;;;;;;;8.93;4.40;;;;;;;19.83;74.08;97903.59;5024027;28;20678;-59
2022/05/28 02:29:14;;;;;;;8.25;3.67;;;;;;;19.83;73.61;97906.22;5035608;28;20581;-59
2022/05/28 02:31:46;;;;;;;10.13;4.25;;;;;;;19.92;73.54;97920.91;5037984;28;20192;-59
2022/05/28 02:34:13;;;;;;;9.60;4.50;;;;;;;19.84;73.58;97906.06;5036628;28;20174;-59
2022/05/28 02:36:40;;;;;;;8.60;3.72;;;;;;;19.90;73.19;97904.53;5036193;28;20276;-59
2022/05/28 02:39:06;;;;;;;10.18;4.50;;;;;;;19.94;73.01;97911.06;5038703;28;20580;-59
2022/05/28 02:41:32;;;;;;;6.10;3.90;;;;;;;19.86;73.72;97914.56;5039098;28;20189;-59
2022/05/28 02:43:57;;;;;;;12.40;4.45;;;;;;;19.86;73.85;97911.94;5036263;28;20193;-59
2022/05/28 02:46:22;;;;;;;9.05;3.90;;;;;;;19.84;73.87;97905.22;5037265;28;20189;-59
2022/05/28 02:48:48;;;;;;;7.95;4.72;;;;;;;19.77;74.67;97910.34;5040677;28;20185;-60
2022/05/28 02:51:22;;;;;;;7.10;4.45;;;;;;;19.80;74.59;97914.44;5034678;28;20182;-59
2022/05/28 02:53:50;;;;;;;8.63;4.65;;;;;;;19.74;75.64;97920.38;5032411;28;20181;-59
2022/05/28 02:56:16;;;;;;;11.90;5.35;;;;;;;19.74;75.42;97920.38;5033356;28;20251;-59
2022/05/28 02:58:41;;;;;;;9.98;4.00;;;;;;;19.73;75.60;97918.75;5032959;28;20209;-60
2022/05/28 03:01:19;;;;;;;8.02;4.25;;;;;;;19.75;75.49;97928.09;5032578;28;20303;-60
2022/05/28 03:03:44;;;;;;;9.43;4.63;;;;;;;19.75;75.66;97935.19;5016657;28;20741;-59
2022/05/28 03:06:10;;;;;;;7.28;4.55;;;;;;;19.65;77.94;97942.44;5017198;28;20192;-59
2022/05/28 03:08:36;;;;;;;8.15;4.32;;;;;;;19.66;77.10;97936.19;5025785;28;20196;-59
2022/05/28 03:11:01;;;;;;;8.63;4.30;;;;;;;19.84;75.24;97942.81;5037589;28;20180;-59
2022/05/28 03:13:26;;;;;;;9.15;4.40;;;;;;;19.90;75.79;97950.00;5031042;28;20197;-59
2022/05/28 03:15:52;;;;;;;7.00;4.50;;;;;;;19.89;75.59;97944.91;5030300;28;20178;-59
2022/05/28 03:18:17;;;;;;;8.85;4.80;;;;;;;19.87;75.92;97941.66;5034707;28;20673;-59
2022/05/28 03:20:43;;;;;;;8.00;4.53;;;;;;;19.84;76.60;97947.25;5036226;28;20181;-60
2022/05/28 03:23:08;;;;;;;6.80;4.78;;;;;;;19.85;77.34;97943.63;5032370;28;20243;-59
2022/05/28 03:25:34;;;;;;;10.77;4.82;;;;;;;19.90;77.65;97942.13;5015927;28;20296;-59
2022/05/28 03:27:59;;;;;;;9.60;4.55;;;;;;;20.00;76.18;97947.16;5017838;28;20224;-59
2022/05/28 03:30:25;;;;;;;8.48;4.40;;;;;;;20.07;74.86;97945.47;5027160;28;20205;-59
2022/05/28 03:32:51;;;;;;;6.22;4.38;;;;;;;20.03;75.63;97944.97;5042634;28;20559;-59
2022/05/28 03:35:16;;;;;;;13.73;4.93;;;;;;;19.98;75.60;97949.09;5036208;28;20188;-59
2022/05/28 03:37:42;;;;;;;10.90;4.78;;;;;;;20.04;75.41;97943.97;5040837;28;20259;-59
2022/05/28 03:40:07;;;;;;;8.43;4.32;;;;;;;20.17;74.64;97948.69;5026968;28;20277;-59
2022/05/28 03:42:33;;;;;;;9.57;4.32;;;;;;;20.11;74.78;97946.78;5031122;28;20226;-59
2022/05/28 03:44:58;;;;;;;9.32;4.40;;;;;;;20.04;75.26;97945.81;5039833;28;20251;-60
2022/05/28 03:47:24;;;;;;;4.57;4.05;;;;;;;20.10;74.80;97945.16;5036087;28;20411;-60
2022/05/28 03:49:49;;;;;;;11.65;4.30;;;;;;;20.17;74.90;97938.19;5038098;28;20961;-60
2022/05/28 03:52:15;;;;;;;9.55;4.43;;;;;;;20.22;74.94;97951.63;5036894;28;20193;-59
2022/05/28 03:54:44;;;;;;;8.70;4.88;;;;;;;20.31;76.36;97950.53;5040695;28;20686;-59
2022/05/28 03:57:17;;;;;;;14.80;4.93;;;;;;;20.41;75.68;97945.88;5036726;28;20208;-59
2022/05/28 03:59:42;;;;;;;9.45;4.57;;;;;;;20.49;74.70;97953.66;5041862;28;20210;-61
2022/05/28 04:02:08;;;;;;;13.80;4.88;;;;;;;20.59;74.68;97964.75;5039058;28;20282;-61
2022/05/28 04:04:34;;;;;;;10.15;5.07;;;;;;;20.69;73.66;97975.84;5035094;28;20258;-60
2022/05/28 04:07:00;;;;;;;9.52;4.90;;;;;;;20.82;73.38;97986.56;5035731;28;20181;-62
2022/05/28 04:09:26;;;;;;;11.23;4.55;;;;;;;20.91;72.74;97996.03;5036368;28;20185;-60
2022/05/28 04:11:52;;;;;;;12.63;5.07;;;;;;;20.91;74.02;97990.78;5040373;28;20184;-60
2022/05/28 04:14:17;;;;;;;9.60;4.70;;;;;;;20.80;74.95;97999.09;5037711;28;20173;-60
2022/05/28 04:16:43;;;;;;;11.50;4.72;;;;;;;20.67;73.98;97996.22;5036583;28;20583;-60
2022/05/28 04:19:09;;;;;;;11.15;5.22;;;;;;;20.81;74.73;97995.47;5040267;28;20272;-61
2022/05/28 04:21:36;;;;;;;12.00;5.68;;;;;;;20.99;74.21;98015.19;5040357;28;20177;-60
2022/05/28 04:24:02;;;;;;;8.13;4.93;;;;;;;21.05;75.15;98013.66;5032472;28;20204;-60
2022/05/28 04:26:27;;;;;;;9.93;4.63;;;;;;;21.16;74.10;98010.59;5034791;28;20185;-60
2022/05/28 04:28:53;;;;;;;8.45;4.95;;;;;;;20.94;73.93;97974.63;5015289;28;20181;-62
2022/05/28 04:31:18;;;;;;;11.40;5.25;;;;;;;21.04;74.42;98002.31;5020873;28;20182;-62
2022/05/28 04:33:44;;;;;;;9.52;4.70;;;;;;;21.07;74.42;97998.50;5030386;28;20186;-61
2022/05/28 04:36:09;;;;;;;13.18;4.72;;;;;;;21.12;73.32;98001.41;5040156;28;20677;-60
2022/05/28 04:38:35;;;;;;;11.93;4.53;;;;;;;21.25;73.04;97996.34;5040821;28;20667;-61
2022/05/28 04:41:00;;;;;;;9.23;4.97;;;;;;;21.29;72.69;98005.50;5031723;28;20635;-60
2022/05/28 04:43:26;;;;;;;13.05;4.47;;;;;;;21.28;72.25;98003.88;5041372;28;20181;-61
2022/05/28 04:45:51;;;;;;;9.43;4.75;;;;;;;21.21;72.48;98008.25;5049185;28;20197;-61
2022/05/28 04:48:16;;;;;;;7.30;4.47;;;;;;;21.46;71.97;98035.91;5028033;28;20923;-62
2022/05/28 04:50:42;;;;;;;8.50;4.47;;;;;;;21.60;71.82;98029.81;5019093;28;20189;-61
2022/05/28 04:53:07;;;;;;;8.23;4.90;;;;;;;21.50;72.67;98034.56;5022747;28;20185;-60
2022/05/28 04:55:33;;;;;;;10.60;5.90;;;;;;;21.37;76.61;98023.81;5034462;28;20173;-60
2022/05/28 04:57:58;;;;;;;8.45;6.20;;;;;;;21.54;77.34;98017.38;5043096;28;20219;-60
2022/05/28 05:00:26;;;;;;;13.60;5.47;;;;;;;21.44;74.05;98003.69;5040733;28;20177;-61
2022/05/28 05:02:51;;;;;;;11.55;5.75;;;;;;;21.39;74.18;98013.94;5039378;28;20678;-60
2022/05/28 05:05:17;;;;;;;12.65;5.13;;;;;;;21.44;74.45;98004.50;5031739;28;20202;-61
2022/05/28 05:07:42;;;;;;;10.80;4.38;;;;;;;21.58;73.97;98010.75;5045288;28;20185;-61
2022/05/28 05:10:09;;;;;;;6.47;4.40;;;;;;;21.72;73.40;98015.22;5037451;28;20196;-61
2022/05/28 05:12:35;;;;;;;9.77;4.95;;;;;;;21.81;72.47;98001.78;5037348;28;20276;-61
2022/05/28 05:15:01;;;;;;;7.18;4.47;;;;;;;21.82;71.93;97998.13;5037769;28;20188;-60
2022/05/28 05:17:26;;;;;;;13.48;4.65;;;;;;;21.88;70.77;97997.38;5034889;28;20188;-60
2022/05/28 05:19:53;;;;;;;14.85;6.38;;;;;;;21.78;71.65;97996.03;5036608;28;20177;-61
2022/05/28 05:22:19;;;;;;;9.85;4.93;;;;;;;21.97;71.37;97995.47;5036607;28;20242;-62
2022/05/28 05:24:44;;;;;;;5.20;4.50;;;;;;;21.95;70.83;97982.47;5039419;28;20200;-60
2022/05/28 05:27:10;;;;;;;12.27;5.18;;;;;;;22.01;70.60;97984.34;5036410;28;20188;-60
2022/05/28 05:29:37;;;;;;;8.82;5.10;;;;;;;21.99;71.21;97998.72;5028936;28;20188;-60
2022/05/28 05:32:03;;;;;;;21.20;4.78;;;;;;;22.02;71.01;97993.09;5016409;28;20185;-60
2022/05/28 05:34:28;;;;;;;15.57;5.25;;;;;;;22.07;71.94;97995.97;5019664;28;20248;-61
2022/05/28 05:36:53;;;;;;;13.27;5.10;;;;;;;22.19;71.75;97997.09;5027194;28;20240;-60
2022/05/28 05:39:19;;;;;;;7.22;4.70;;;;;;;22.18;72.03;97993.66;5035364;28;20250;-61
2022/05/28 05:41:44;;;;;;;10.30;4.78;;;;;;;22.16;72.67;97985.13;5035596;28;20645;-61
2022/05/28 05:44:10;;;;;;;7.30;4.65;;;;;;;22.33;72.63;97980.41;5043140;28;20200;-62
2022/05/28 05:46:41;;;;;;;9.63;4.60;;;;;;;22.49;72.19;97988.91;5037266;28;20289;-61
2022/05/28 05:49:08;;;;;;;9.57;4.38;;;;;;;22.56;71.99;97981.06;5041802;28;20195;-60
2022/05/28 05:51:41;;;;;;;11.38;4.80;;;;;;;22.73;71.14;97992.97;5033031;28;20737;-60
2022/05/28 05:54:07;;;;;;;9.40;4.57;;;;;;;22.81;70.84;98004.19;5037859;28;20181;-62
2022/05/28 05:56:33;;;;;;;10.13;4.70;;;;;;;22.81;70.71;98000.75;5041153;28;20198;-60
2022/05/28 05:58:58;;;;;;;50.67;8.07;;;;;;;22.87;70.27;97999.97;5041098;28;20665;-61
2022/05/28 06:01:25;;;;;;;13.45;4.68;;;;;;;23.04;69.52;98002.16;5037587;28;20181;-62
2022/05/28 06:03:51;;;;;;;12.38;4.55;;;;;;;23.18;69.08;98014.44;5036937;28;20267;-61
2022/05/28 06:06:17;;;;;;;10.82;4.63;;;;;;;23.29;69.57;98015.72;5028168;28;20186;-61
2022/05/28 06:08:43;;;;;;;12.63;4.63;;;;;;;23.45;68.91;98013.59;5040603;28;20188;-61
2022/05/28 06:11:09;;;;;;;9.02;4.60;;;;;;;23.52;68.17;98010.97;5040513;28;20180;-61
2022/05/28 06:13:35;;;;;;;8.60;4.88;;;;;;;23.62;68.64;98008.78;5036388;28;20908;-61
2022/05/28 06:16:01;;;;;;;12.30;4.97;;;;;;;23.79;67.54;98016.19;5037911;28;20200;-61
2022/05/28 06:18:27;;;;;;;15.52;5.60;;;;;;;23.85;69.08;98013.56;5044153;28;20713;-61
2022/05/28 06:20:56;;;;;;;13.23;5.28;;;;;;;23.98;69.88;98018.13;5036749;28;20190;-61
2022/05/28 06:23:21;;;;;;;13.13;4.97;;;;;;;24.08;68.25;98014.09;5035425;28;20238;-61
2022/05/28 06:25:47;;;;;;;13.75;5.50;;;;;;;24.13;66.69;98010.81;5045175;28;20201;-61
2022/05/28 06:28:13;;;;;;;10.98;5.00;;;;;;;24.13;66.45;98002.09;5037941;28;20177;-61
2022/05/28 06:30:44;;;;;;;9.68;4.65;;;;;;;24.21;66.54;98008.81;5041318;28;20213;-61
2022/05/28 06:33:10;;;;;;;8.70;5.05;;;;;;;24.33;65.99;98009.06;5027734;28;20189;-61
2022/05/28 06:35:35;;;;;;;14.43;5.55;;;;;;;24.37;65.94;98005.00;5016951;28;20165;-61
2022/05/28 06:38:01;;;;;;;13.43;6.28;;;;;;;24.50;65.77;98019.03;5019001;28;20188;-61
2022/05/28 06:40:27;;;;;;;30.05;7.00;;;;;;;24.64;65.29;98010.16;5033956;28;20201;-61
2022/05/28 06:42:55;;;;;;;11.93;5.25;;;;;;;24.66;63.85;98007.31;5045871;28;20737;-61
2022/05/28 06:45:21;;;;;;;8.63;5.53;;;;;;;24.87;62.95;98025.63;5042707;28;20207;-61
2022/05/28 06:47:47;;;;;;;13.30;5.57;;;;;;;24.99;62.62;98024.81;5033768;28;20186;-61
2022/05/28 06:52:59;;;;;;;13.43;5.75;;;;;;;25.34;61.10;98036.81;5043536;28;20238;-61
2022/05/28 06:55:25;;;;;;;7.25;5.47;;;;;;;25.47;60.45;98039.44;5017329;28;20177;-61
2022/05/28 06:57:50;;;;;;;13.95;6.47;;;;;;;25.55;62.12;98028.59;5016915;28;20213;-61
2022/05/28 07:00:17;;;;;;;14.38;7.07;;;;;;;25.58;62.23;98014.13;5022949;28;20243;-61
2022/05/28 07:02:43;;;;;;;17.15;6.25;;;;;;;25.62;62.15;98010.03;5033161;28;20191;-61
2022/05/28 07:05:11;;;;;;;12.45;6.30;;;;;;;25.72;62.08;98016.50;5032629;28;20209;-61
2022/05/28 07:07:37;;;;;;;12.80;7.55;;;;;;;25.79;62.22;98012.03;5041093;28;20699;-61
2022/05/28 07:10:03;;;;;;;17.85;7.45;;;;;;;25.86;62.29;98009.31;5036411;28;20173;-61
2022/05/28 07:12:29;;;;;;;15.25;7.75;;;;;;;25.85;62.48;97997.91;5034691;28;20232;-62
2022/05/28 07:14:54;;;;;;;16.20;7.40;;;;;;;25.88;64.00;97988.69;5037186;28;20180;-61
2022/05/28 07:17:20;;;;;;;15.88;7.63;;;;;;;25.95;64.92;97989.53;5035851;28;20181;-61
2022/05/28 07:19:46;;;;;;;14.10;7.30;;;;;;;25.95;64.78;97998.28;5037838;28;20243;-61
2022/05/28 07:22:11;;;;;;;15.63;7.82;;;;;;;25.91;64.57;97997.09;5041194;28;20189;-62
2022/05/28 07:24:37;;;;;;;16.35;7.60;;;;;;;25.92;64.77;98001.38;5033420;28;20197;-61
2022/05/28 07:27:02;;;;;;;15.35;8.10;;;;;;;25.82;65.19;98008.94;5033335;28;20196;-61
2022/05/28 07:29:28;;;;;;;11.80;8.00;;;;;;;25.87;65.57;98019.72;5044180;28;20698;-61
2022/05/28 07:31:53;;;;;;;12.77;7.75;;;;;;;25.94;65.82;98014.44;5042818;28;20173;-61
2022/05/28 07:34:18;;;;;;;17.17;8.40;;;;;;;26.03;65.68;98007.84;5034155;28;20647;-61
2022/05/28 07:36:44;;;;;;;12.25;7.57;;;;;;;26.09;64.76;97997.22;5028783;28;20627;-61
2022/05/28 07:39:09;;;;;;;14.38;7.90;;;;;;;26.13;64.48;97982.47;5016463;28;20260;-61
2022/05/28 07:41:36;;;;;;;11.73;7.45;;;;;;;26.13;64.78;97979.03;5019454;28;20182;-62
2022/05/28 07:44:02;;;;;;;18.50;8.93;;;;;;;26.22;64.55;97986.53;5035627;28;20184;-61
2022/05/28 07:46:31;;;;;;;11.60;8.32;;;;;;;26.28;64.27;97982.19;5034211;28;20200;-61
2022/05/28 07:48:58;;;;;;;16.55;8.40;;;;;;;26.34;64.56;97979.50;5030690;28;20185;-62
2022/05/28 07:51:24;;;;;;;10.73;8.07;;;;;;;26.33;65.17;97975.22;5044519;28;20268;-61
2022/05/28 07:53:49;;;;;;;17.52;9.02;;;;;;;26.32;65.62;97956.88;5040994;28;21018;-61
2022/05/28 07:56:15;;;;;;;16.92;9.80;;;;;;;26.45;65.31;97962.91;5034472;28;20185;-60
2022/05/28 07:58:41;;;;;;;17.90;9.48;;;;;;;26.53;65.12;97954.66;5016015;28;20703;-62
2022/05/28 08:01:16;;;;;;;22.85;15.98;;;;;;;26.57;64.83;97950.59;5016491;28;20542;-62
2022/05/28 08:03:42;;;;;;;18.15;11.27;;;;;;;26.56;64.52;97954.28;5025334;28;20180;-61
2022/05/28 08:06:07;;;;;;;15.60;8.88;;;;;;;26.60;64.68;97939.50;5049637;28;20599;-61
2022/05/28 08:08:33;;;;;;;12.50;8.68;;;;;;;26.57;65.31;97944.44;5044260;28;20578;-61
2022/05/28 08:10:58;;;;;;;14.77;8.38;;;;;;;26.51;65.18;97948.75;5042741;28;20622;-62
2022/05/28 08:13:24;;;;;;;17.23;8.82;;;;;;;26.59;65.48;97937.91;5046950;28;20184;-61
2022/05/28 08:15:52;;;;;;;17.60;10.15;;;;;;;26.62;64.85;97940.13;5036574;28;20177;-61
2022/05/28 08:18:20;;;;;;;14.65;8.65;;;;;;;26.62;64.11;97934.81;5044928;28;20193;-62
2022/05/28 08:23:31;;;;;;;18.73;8.82;;;;;;;26.57;65.29;97932.00;5041811;28;20220;-61
2022/05/28 08:25:56;;;;;;;15.13;8.82;;;;;;;26.72;65.95;97935.16;5040375;28;20288;-61
2022/05/28 08:28:22;;;;;;;21.05;8.80;;;;;;;26.56;65.60;97930.38;5041535;28;20260;-62
2022/05/28 08:30:48;;;;;;;15.95;9.40;;;;;;;26.59;65.40;97929.13;5037407;28;20216;-62
2022/05/28 08:33:16;;;;;;;21.83;8.95;;;;;;;26.61;65.42;97914.63;5041687;28;20185;-61
2022/05/28 08:35:43;;;;;;;16.25;8.82;;;;;;;26.70;64.63;97923.91;5040943;28;20193;-61
2022/05/28 08:38:14;;;;;;;17.38;9.25;;;;;;;26.74;64.56;97919.81;5042929;28;20201;-62
2022/05/28 08:41:14;;;;;;;17.48;8.88;;;;;;;26.72;63.22;97902.47;5039462;28;20225;-61
2022/05/28 08:43:47;;;;;;;19.77;9.40;;;;;;;26.82;63.91;97892.16;5036847;28;20188;-61
2022/05/28 08:46:15;;;;;;;22.67;8.95;;;;;;;27.07;63.86;97891.06;5039591;28;20222;-61
2022/05/28 08:48:57;;;;;;;13.77;8.38;;;;;;;27.20;62.58;97884.81;5041346;28;20181;-61
2022/05/28 08:51:41;;;;;;;10.80;8.20;;;;;;;27.26;63.55;97883.94;5040374;28;20253;-61
2022/05/28 08:54:30;;;;;;;14.88;8.93;;;;;;;27.27;63.49;97874.91;5034833;28;20189;-61
2022/05/28 08:57:00;;;;;;;21.40;10.00;;;;;;;27.40;62.62;97866.81;5039412;28;20208;-61
2022/05/28 08:59:31;;;;;;;16.02;8.18;;;;;;;27.44;63.15;97868.78;5044929;28;20177;-61
2022/05/28 09:01:58;;;;;;;18.55;7.93;;;;;;;27.55;62.47;97849.41;5037803;28;20268;-60
2022/05/28 09:04:39;;;;;;;11.40;7.03;;;;;;;27.63;61.52;97846.44;5039241;28;20284;-61
2022/05/28 09:07:10;;;;;;;12.55;6.78;;;;;;;27.74;59.85;97839.50;5046268;28;20264;-62
2022/05/28 09:09:42;;;;;;;18.20;7.38;;;;;;;27.78;59.58;97830.91;5044062;28;20268;-62
2022/05/28 09:12:18;;;;;;;11.13;6.75;;;;;;;27.84;56.58;97823.84;5044624;28;20191;-61
2022/05/28 09:14:44;;;;;;;11.27;5.95;;;;;;;27.82;57.05;97816.09;5035488;28;20264;-61
2022/05/28 09:17:26;;;;;;;11.45;4.85;;;;;;;27.88;53.63;97803.75;5039845;28;20264;-61
2022/05/28 09:19:55;;;;;;;12.27;5.20;;;;;;;28.02;53.97;97810.47;5044852;28;20658;-61
2022/05/28 09:22:24;;;;;;;12.38;5.45;;;;;;;28.18;53.22;97807.97;5038216;28;20958;-61
2022/05/28 09:24:50;;;;;;;10.07;5.22;;;;;;;28.23;52.86;97797.41;5038226;28;20197;-61
2022/05/28 09:27:38;;;;;;;11.48;5.75;;;;;;;28.45;54.28;97806.47;5041740;28;20199;-62
2022/05/28 09:30:52;;;;;;;13.32;5.65;;;;;;;28.66;53.39;97795.25;5040033;28;20566;-61
2022/05/28 09:33:46;;;;;;;13.38;5.28;;;;;;;28.79;51.49;97808.28;5035657;28;20208;-61
2022/05/28 09:36:26;;;;;;;7.57;5.10;;;;;;;28.80;49.12;97804.59;5040325;28;20184;-62
2022/05/28 09:39:07;;;;;;;17.20;5.57;;;;;;;28.70;49.22;97816.88;5035169;28;20182;-61
2022/05/28 09:41:47;;;;;;;8.68;4.25;;;;;;;28.84;48.25;97810.25;5035157;28;20177;-62
2022/05/28 09:44:28;;;;;;;8.13;4.57;;;;;;;28.98;49.73;97806.34;5017095;28;20629;-61
2022/05/28 09:46:53;;;;;;;13.18;5.55;;;;;;;29.06;48.09;97812.09;5019471;28;20580;-61
2022/05/28 09:49:22;;;;;;;11.93;5.38;;;;;;;29.12;48.45;97802.34;5029097;28;20182;-61
2022/05/28 09:51:56;;;;;;;11.60;5.50;;;;;;;28.98;49.46;97806.34;5036425;28;20185;-61
2022/05/28 09:54:27;;;;;;;7.15;4.40;;;;;;;28.73;45.59;97811.06;5039072;28;20673;-62
2022/05/28 09:57:22;;;;;;;14.13;4.97;;;;;;;28.59;47.12;97807.06;5040664;28;20670;-61
2022/05/28 09:59:56;;;;;;;17.00;5.18;;;;;;;28.33;49.58;97810.16;5042132;28;20173;-61
2022/05/28 10:02:21;;;;;;;10.20;5.20;;;;;;;28.25;50.57;97813.97;5030878;28;20931;-61
2022/05/28 10:05:03;;;;;;;9.77;4.68;;;;;;;28.18;51.38;97807.16;5017286;28;20201;-61
2022/05/28 10:07:34;;;;;;;12.70;5.40;;;;;;;27.98;52.33;97801.34;5018545;28;20178;-61
2022/05/28 10:10:00;;;;;;;9.93;5.93;;;;;;;27.83;52.79;97814.25;5030790;28;20220;-61
2022/05/28 10:12:31;;;;;;;12.00;5.70;;;;;;;27.71;53.72;97822.19;5043086;28;20185;-61
2022/05/28 10:14:58;;;;;;;8.25;5.53;;;;;;;27.73;54.62;97830.75;5041595;28;20205;-61
2022/05/28 10:17:25;;;;;;;18.80;5.47;;;;;;;27.55;55.10;97822.84;5040475;28;20181;-60
2022/05/28 10:19:54;;;;;;;11.95;5.75;;;;;;;27.58;57.63;97825.03;5045091;28;20662;-61
2022/05/28 10:22:22;;;;;;;15.10;6.22;;;;;;;27.46;58.46;97828.69;5036265;28;20174;-62
2022/05/28 10:24:55;;;;;;;10.70;6.03;;;;;;;27.42;59.87;97836.31;5023934;28;20245;-62
2022/05/28 10:27:34;;;;;;;14.50;6.55;;;;;;;27.28;61.40;97829.53;5015903;28;20189;-61
2022/05/28 10:30:04;;;;;;;8.43;5.57;;;;;;;27.24;61.85;97832.88;5020421;28;20672;-62
2022/05/28 10:32:48;;;;;;;8.90;5.60;;;;;;;27.19;61.58;97841.50;5038934;28;20177;-61
2022/05/28 10:35:16;;;;;;;8.32;5.40;;;;;;;27.22;60.30;97845.56;5034157;28;20685;-63
2022/05/28 10:37:43;;;;;;;7.68;5.90;;;;;;;27.16;63.66;97833.16;5036982;28;20238;-61
2022/05/28 10:40:22;;;;;;;7.80;5.45;;;;;;;27.10;64.30;97844.63;5034940;28;20260;-62
2022/05/28 10:42:48;;;;;;;10.82;5.32;;;;;;;27.05;61.31;97825.94;5041968;28;20209;-62
2022/05/28 10:45:19;;;;;;;8.25;5.40;;;;;;;27.03;62.75;97834.09;5039082;28;20259;-60
2022/05/28 10:47:59;;;;;;;6.18;5.03;;;;;;;26.96;62.82;97830.72;5036066;28;20177;-62
2022/05/28 10:50:34;;;;;;;9.07;5.53;;;;;;;26.85;63.12;97830.63;5038092;28;20255;-62
2022/05/28 10:53:18;;;;;;;8.40;5.40;;;;;;;26.76;62.36;97835.44;5044290;28;20180;-61
2022/05/28 10:55:46;;;;;;;15.27;5.60;;;;;;;26.72;61.93;97839.56;5031967;28;20734;-61
2022/05/28 10:58:24;;;;;;;14.52;6.28;;;;;;;26.49;69.36;97830.59;5028597;28;20600;-61
2022/05/28 11:01:21;;;;;;;9.13;5.88;;;;;;;26.39;67.75;97825.78;5028704;28;20189;-61
2022/05/28 11:04:14;;;;;;;11.35;6.10;;;;;;;26.22;69.30;97830.00;5036586;28;20758;-61
2022/05/28 11:07:16;;;;;;;9.43;6.28;;;;;;;26.08;74.69;97812.59;5040178;28;20189;-61
2022/05/28 11:09:42;;;;;;;11.70;5.82;;;;;;;25.88;81.06;97801.28;5036809;28;20260;-61
2022/05/28 11:12:35;;;;;;;11.35;6.80;;;;;;;25.78;82.00;97803.59;5039767;28;20347;-61
2022/05/28 11:15:25;;;;;;;8.73;6.40;;;;;;;25.81;78.25;97800.53;5037563;28;20184;-61
2022/05/28 11:18:17;;;;;;;11.15;6.38;;;;;;;25.60;81.17;97784.97;5037941;28;20189;-61
2022/05/28 11:21:00;;;;;;;9.93;6.50;;;;;;;25.41;84.77;97779.81;5039391;28;20713;-62
2022/05/28 11:23:44;;;;;;;41.65;31.13;;;;;;;25.41;84.47;97785.09;5036676;28;20238;-62
2022/05/28 11:26:31;;;;;;;11.02;7.03;;;;;;;25.39;83.56;97798.59;5036209;28;20213;-60
2022/05/28 11:29:15;;;;;;;15.38;7.55;;;;;;;25.01;88.67;97792.41;5016850;28;20827;-62
2022/05/28 11:31:48;;;;;;;15.68;7.95;;;;;;;24.84;89.66;97793.13;5016923;28;20173;-62
2022/05/28 11:34:19;;;;;;;11.43;7.47;;;;;;;24.78;90.03;97786.81;5029116;28;20184;-61
2022/05/28 11:36:52;;;;;;;12.35;7.88;;;;;;;24.49;93.70;97791.75;5042308;28;20173;-61
2022/05/28 11:39:33;;;;;;;14.70;7.32;;;;;;;24.46;94.99;97786.88;5040047;28;20177;-61
2022/05/28 11:42:06;;;;;;;11.75;7.68;;;;;;;24.21;95.73;97780.63;5036881;28;20570;-61
2022/05/28 11:44:39;;;;;;;11.82;7.13;;;;;;;24.42;87.24;97794.41;5038920;28;20224;-61
2022/05/28 11:47:21;;;;;;;14.48;7.13;;;;;;;24.60;83.13;97796.41;5040259;28;20181;-62
2022/05/28 11:53:03;;;;;;;15.05;6.03;;;;;;;24.83;78.27;97791.47;5040880;28;20184;-61